createdAt,value
2023-09-16T00:04:24.921Z,6.53
2023-09-16T00:06:52.139Z,6.97
2023-09-16T00:09:18.946Z,6.72
2023-09-16T00:11:45.834Z,6.10
2023-09-16T00:14:12.570Z,6.57
2023-09-16T00:16:40.003Z,5.32
2023-09-16T00:19:07.062Z,5.60
2023-09-16T00:21:33.997Z,6.18
2023-09-16T00:24:00.927Z,6.03
2023-09-16T00:26:28.273Z,5.97
2023-09-16T00:28:55.615Z,6.45
2023-09-16T00:31:22.606Z,6.40
2023-09-16T00:33:50.628Z,6.15
2023-09-16T00:36:17.725Z,6.40
2023-09-16T00:38:44.902Z,6.10
2023-09-16T00:41:13.613Z,7.25
2023-09-16T00:43:40.813Z,6.70
2023-09-16T00:46:07.764Z,7.10
2023-09-16T00:48:34.991Z,6.40
2023-09-16T00:51:02.662Z,6.65
2023-09-16T00:53:29.558Z,7.15
2023-09-16T00:55:57.038Z,6.13
2023-09-16T00:58:23.929Z,6.43
2023-09-16T01:00:51.709Z,7.15
2023-09-16T01:03:19.513Z,6.78
2023-09-16T01:05:51.053Z,6.70
2023-09-16T01:08:19.229Z,7.35
2023-09-16T01:10:46.084Z,6.55
2023-09-16T01:16:20.677Z,5.55
2023-09-16T01:18:53.001Z,6.18
2023-09-16T01:21:23.282Z,7.10
2023-09-16T01:24:10.069Z,6.20
2023-09-16T01:26:36.767Z,6.78
2023-09-16T01:29:03.645Z,7.60
2023-09-16T01:31:31.481Z,7.05
2023-09-16T01:34:00.064Z,6.32
2023-09-16T01:36:29.521Z,6.40
2023-09-16T01:39:03.956Z,6.90
2023-09-16T01:41:35.311Z,6.75
2023-09-16T01:44:04.058Z,6.57
2023-09-16T01:46:31.068Z,7.22
2023-09-16T01:48:58.142Z,6.35
2023-09-16T01:51:25.970Z,6.68
2023-09-16T01:53:52.808Z,7.45
2023-09-16T01:58:47.221Z,6.43
2023-09-16T02:01:15.891Z,6.07
2023-09-16T02:03:42.713Z,6.22
2023-09-16T02:08:36.516Z,7.50
2023-09-16T02:11:03.751Z,6.72
2023-09-16T02:13:32.548Z,6.50
2023-09-16T02:16:00.548Z,6.85
2023-09-16T02:18:28.411Z,6.97
2023-09-16T02:20:55.244Z,6.80
2023-09-16T02:25:49.930Z,6.30
2023-09-16T02:30:44.281Z,6.93
2023-09-16T02:35:40.561Z,6.40
2023-09-16T02:38:07.587Z,6.25
2023-09-16T02:43:01.128Z,6.13
2023-09-16T02:45:29.645Z,5.93
2023-09-16T02:50:23.252Z,5.65
2023-09-16T02:55:17.338Z,5.90
2023-09-16T02:57:44.480Z,6.47
2023-09-16T03:02:40.537Z,6.35
2023-09-16T03:05:07.345Z,6.13
2023-09-16T03:07:34.367Z,5.70
2023-09-16T03:12:27.882Z,6.43
2023-09-16T03:14:54.867Z,6.38
2023-09-16T03:17:21.718Z,5.50
2023-09-16T03:19:48.549Z,6.55
2023-09-16T03:24:42.419Z,5.38
2023-09-16T03:27:10.019Z,5.35
2023-09-16T03:29:37.611Z,6.25
2023-09-16T03:32:05.549Z,5.93
2023-09-16T03:34:33.965Z,6.22
2023-09-16T03:37:01.179Z,5.20
2023-09-16T03:39:28.620Z,5.95
2023-09-16T03:41:56.372Z,5.10
2023-09-16T03:44:24.119Z,5.50
2023-09-16T03:55:11.399Z,6.03
2023-09-16T03:57:38.451Z,6.55
2023-09-16T04:00:08.547Z,6.03
2023-09-16T04:02:42.244Z,5.45
2023-09-16T04:05:09.326Z,5.88
2023-09-16T04:07:37.402Z,5.25
2023-09-16T04:12:31.742Z,6.25
2023-09-16T04:17:25.752Z,5.03
2023-09-16T04:19:53.931Z,6.18
2023-09-16T04:22:21.285Z,6.57
2023-09-16T04:24:50.008Z,5.30
2023-09-16T04:27:17.648Z,5.82
2023-09-16T04:29:46.827Z,5.45
2023-09-16T04:32:14.251Z,5.97
2023-09-16T04:37:10.110Z,5.25
2023-09-16T04:39:37.513Z,5.70
2023-09-16T04:42:04.714Z,6.10
2023-09-16T04:44:31.764Z,5.78
2023-09-16T04:47:00.234Z,6.88
2023-09-16T04:49:29.061Z,5.72
2023-09-16T04:51:55.968Z,5.32
2023-09-16T04:54:23.762Z,5.22
2023-09-16T04:56:50.717Z,5.53
2023-09-16T04:59:17.592Z,5.97
2023-09-16T05:01:46.081Z,6.05
2023-09-16T05:04:13.455Z,6.10
2023-09-16T05:06:41.697Z,5.57
2023-09-16T05:09:10.148Z,5.88
2023-09-16T05:11:39.909Z,5.80
2023-09-16T05:14:07.299Z,5.88
2023-09-16T05:16:34.623Z,6.13
2023-09-16T05:19:06.149Z,6.57
2023-09-16T05:21:33.288Z,5.30
2023-09-16T05:24:01.360Z,5.53
2023-09-16T05:26:30.341Z,6.00
2023-09-16T05:28:57.927Z,6.18
2023-09-16T05:31:27.716Z,5.50
2023-09-16T05:33:55.927Z,5.93
2023-09-16T05:36:25.186Z,6.13
2023-09-16T05:38:52.389Z,5.10
2023-09-16T05:41:19.941Z,5.80
2023-09-16T05:43:47.002Z,6.30
2023-09-16T05:46:14.610Z,6.03
2023-09-16T05:48:42.789Z,6.55
2023-09-16T05:51:11.384Z,5.18
2023-09-16T05:53:38.359Z,5.82
2023-09-16T05:56:05.964Z,6.47
2023-09-16T05:58:35.813Z,5.72
2023-09-16T06:01:03.423Z,5.72
2023-09-16T06:03:30.622Z,5.80
2023-09-16T06:05:59.756Z,6.15
2023-09-16T06:08:27.155Z,5.95
2023-09-16T06:10:57.259Z,5.25
2023-09-16T06:13:27.821Z,5.15
2023-09-16T06:15:56.240Z,5.80
2023-09-16T06:18:26.009Z,5.75
2023-09-16T06:20:52.977Z,5.28
2023-09-16T06:23:20.058Z,5.18
2023-09-16T06:25:49.393Z,6.78
2023-09-16T06:28:16.649Z,5.18
2023-09-16T06:30:43.784Z,6.10
2023-09-16T06:33:13.459Z,5.05
2023-09-16T06:35:40.310Z,5.05
2023-09-16T06:38:07.137Z,5.53
2023-09-16T06:40:33.943Z,5.55
2023-09-16T06:43:00.821Z,5.57
2023-09-16T06:45:29.627Z,4.13
2023-09-16T06:47:57.593Z,5.45
2023-09-16T06:50:24.424Z,4.70
2023-09-16T06:52:51.436Z,4.25
2023-09-16T06:55:18.309Z,4.85
2023-09-16T06:57:46.038Z,5.43
2023-09-16T07:00:14.345Z,4.65
2023-09-16T07:02:42.929Z,4.90
2023-09-16T07:05:11.381Z,4.47
2023-09-16T07:07:39.071Z,4.55
2023-09-16T07:10:06.556Z,5.43
2023-09-16T07:12:33.457Z,4.80
2023-09-16T07:15:00.312Z,4.80
2023-09-16T07:17:27.209Z,5.00
2023-09-16T07:19:53.960Z,4.50
2023-09-16T07:22:21.435Z,4.15
2023-09-16T07:24:48.447Z,4.18
2023-09-16T07:27:15.424Z,4.75
2023-09-16T07:29:42.483Z,4.30
2023-09-16T07:32:09.376Z,5.13
2023-09-16T07:34:36.232Z,4.55
2023-09-16T07:37:04.667Z,4.25
2023-09-16T07:39:31.645Z,5.07
2023-09-16T07:41:59.343Z,4.82
2023-09-16T07:44:27.686Z,4.65
2023-09-16T07:46:54.540Z,4.30
2023-09-16T07:49:21.426Z,4.07
2023-09-16T07:51:49.794Z,3.60
2023-09-16T07:54:17.019Z,4.07
2023-09-16T07:56:43.975Z,4.32
2023-09-16T07:59:11.325Z,3.75
2023-09-16T08:01:38.621Z,4.88
2023-09-16T08:04:05.740Z,4.18
2023-09-16T08:06:32.654Z,3.83
2023-09-16T08:08:59.915Z,4.53
2023-09-16T08:11:26.918Z,3.80
2023-09-16T08:13:53.723Z,3.88
2023-09-16T08:16:20.807Z,4.40
2023-09-16T08:18:47.823Z,3.47
2023-09-16T08:21:15.166Z,4.40
2023-09-16T08:23:42.342Z,4.25
2023-09-16T08:26:09.182Z,4.05
2023-09-16T08:28:37.159Z,3.50
2023-09-16T08:31:04.794Z,2.97
2023-09-16T08:33:31.606Z,3.17
2023-09-16T08:35:58.477Z,3.30
2023-09-16T08:38:25.345Z,2.75
2023-09-16T08:41:03.094Z,2.90
2023-09-16T08:43:35.797Z,2.83
2023-09-16T08:46:04.950Z,3.65
2023-09-16T08:48:36.450Z,3.13
2023-09-16T08:51:06.567Z,2.95
2023-09-16T08:53:38.117Z,2.78
2023-09-16T08:56:06.132Z,3.13
2023-09-16T08:58:40.689Z,2.80
2023-09-16T09:01:08.268Z,3.30
2023-09-16T09:03:35.438Z,2.88
2023-09-16T09:06:04.910Z,3.30
2023-09-16T09:08:34.218Z,3.22
2023-09-16T09:11:01.366Z,2.65
2023-09-16T09:13:29.360Z,3.28
2023-09-16T09:16:02.015Z,3.35
2023-09-16T09:18:30.995Z,2.80
2023-09-16T09:20:58.517Z,2.72
2023-09-16T09:23:27.422Z,3.63
2023-09-16T09:25:54.206Z,3.50
2023-09-16T09:28:21.163Z,2.95
2023-09-16T09:30:48.178Z,3.03
2023-09-16T09:33:16.624Z,3.40
2023-09-16T09:35:43.408Z,3.90
2023-09-16T09:38:10.254Z,2.83
2023-09-16T09:40:37.071Z,2.85
2023-09-16T09:43:04.689Z,3.38
2023-09-16T09:45:37.769Z,4.03
2023-09-16T09:48:05.103Z,3.25
2023-09-16T09:50:32.752Z,3.67
2023-09-16T09:53:04.032Z,2.90
2023-09-16T09:55:32.008Z,2.58
2023-09-16T09:57:59.734Z,3.38
2023-09-16T10:00:27.933Z,3.13
2023-09-16T10:02:55.730Z,3.25
2023-09-16T10:05:24.130Z,3.28
2023-09-16T10:07:53.001Z,4.72
2023-09-16T10:10:25.836Z,3.15
2023-09-16T10:12:54.869Z,3.88
2023-09-16T10:15:32.604Z,3.50
2023-09-16T10:18:00.081Z,3.72
2023-09-16T10:20:30.822Z,3.50
2023-09-16T10:22:59.226Z,3.65
2023-09-16T10:25:30.769Z,4.90
2023-09-16T10:28:01.905Z,3.28
2023-09-16T10:30:31.579Z,3.88
2023-09-16T10:33:06.626Z,3.78
2023-09-16T10:35:35.539Z,3.83
2023-09-16T10:41:11.499Z,3.90
2023-09-16T10:47:21.106Z,3.78
2023-09-16T10:49:50.131Z,3.67
2023-09-16T10:52:20.419Z,3.88
2023-09-16T10:55:16.206Z,3.40
2023-09-16T10:58:02.645Z,3.40
2023-09-16T11:00:38.633Z,3.85
2023-09-16T11:03:06.685Z,3.28
2023-09-16T11:05:36.072Z,3.90
2023-09-16T11:08:03.403Z,3.72
2023-09-16T11:10:33.253Z,3.42
2023-09-16T11:13:01.074Z,3.80
2023-09-16T11:15:37.618Z,3.42
2023-09-16T11:18:06.377Z,3.33
2023-09-16T11:20:34.799Z,3.00
2023-09-16T11:23:03.550Z,3.33
2023-09-16T11:25:48.751Z,3.55
2023-09-16T11:30:56.593Z,4.10
2023-09-16T11:33:36.270Z,4.05
2023-09-16T11:36:19.927Z,3.47
2023-09-16T11:39:12.613Z,3.22
2023-09-16T11:41:39.444Z,4.03
2023-09-16T11:44:07.774Z,3.70
2023-09-16T11:46:35.517Z,4.00
2023-09-16T11:49:04.628Z,3.63
2023-09-16T11:51:33.220Z,4.28
2023-09-16T11:54:01.302Z,3.45
2023-09-16T11:56:35.819Z,3.65
2023-09-16T11:59:05.451Z,3.70
2023-09-16T12:01:35.034Z,3.40
2023-09-16T12:04:05.869Z,4.05
2023-09-16T12:06:36.289Z,4.05
2023-09-16T12:09:05.393Z,4.70
2023-09-16T12:11:33.230Z,3.33
2023-09-16T12:14:01.794Z,3.53
2023-09-16T12:16:29.496Z,3.63
2023-09-16T12:18:57.245Z,4.25
2023-09-16T12:21:24.492Z,3.58
2023-09-16T12:23:53.321Z,4.07
2023-09-16T12:26:21.112Z,3.95
2023-09-16T12:28:48.894Z,3.85
2023-09-16T12:31:24.773Z,3.28
2023-09-16T12:33:55.730Z,3.65
2023-09-16T12:36:29.363Z,3.03
2023-09-16T12:38:57.629Z,3.45
2023-09-16T12:41:28.272Z,3.38
2023-09-16T12:43:57.333Z,3.70
2023-09-16T12:46:27.461Z,3.78
2023-09-16T12:48:55.878Z,3.67
2023-09-16T12:51:23.517Z,3.70
2023-09-16T12:53:54.792Z,3.67
2023-09-16T12:56:24.808Z,3.90
2023-09-16T12:58:52.713Z,3.42
2023-09-16T13:01:21.849Z,3.03
2023-09-16T13:03:49.187Z,3.08
2023-09-16T13:06:16.341Z,2.70
2023-09-16T13:08:44.388Z,2.92
2023-09-16T13:11:12.470Z,3.33
2023-09-16T13:13:40.156Z,3.05
2023-09-16T13:16:09.057Z,3.42
2023-09-16T13:18:40.565Z,3.30
2023-09-16T13:21:07.819Z,2.92
2023-09-16T13:23:35.654Z,3.13
2023-09-16T13:26:15.067Z,3.00
2023-09-16T13:28:57.971Z,3.20
2023-09-16T13:31:27.200Z,2.38
2023-09-16T13:34:01.832Z,3.22
2023-09-16T13:39:02.164Z,3.10
2023-09-16T13:41:29.512Z,2.90
2023-09-16T13:43:56.548Z,3.13
2023-09-16T13:46:25.776Z,3.17
2023-09-16T13:48:55.192Z,3.38
2023-09-16T13:51:22.530Z,3.35
2023-09-16T13:53:49.496Z,3.20
2023-09-16T13:56:17.141Z,3.17
2023-09-16T13:58:44.151Z,3.00
2023-09-16T14:01:11.790Z,3.00
2023-09-16T14:03:39.030Z,2.90
2023-09-16T14:06:08.516Z,3.20
2023-09-16T14:08:35.722Z,3.28
2023-09-16T14:11:02.659Z,3.55
2023-09-16T14:13:29.798Z,3.25
2023-09-16T14:15:56.962Z,2.92
2023-09-16T14:18:23.877Z,3.03
2023-09-16T14:20:51.849Z,2.70
2023-09-16T14:23:20.034Z,3.38
2023-09-16T14:25:47.381Z,2.80
2023-09-16T14:28:14.452Z,3.33
2023-09-16T14:30:41.757Z,2.90
2023-09-16T14:33:09.075Z,2.97
2023-09-16T14:35:36.050Z,3.47
2023-09-16T14:38:05.802Z,3.47
2023-09-16T14:40:33.727Z,3.30
2023-09-16T14:43:00.875Z,3.67
2023-09-16T14:45:28.163Z,3.65
2023-09-16T14:47:55.686Z,3.10
2023-09-16T14:50:23.428Z,3.72
2023-09-16T14:52:51.045Z,4.10
2023-09-16T14:55:19.054Z,3.75
2023-09-16T14:57:47.234Z,3.83
2023-09-16T15:00:14.457Z,4.30
2023-09-16T15:02:43.261Z,3.80
2023-09-16T15:05:10.657Z,4.13
2023-09-16T15:08:19.806Z,4.10
2023-09-16T15:10:55.341Z,4.30
2023-09-16T15:13:22.205Z,3.78
2023-09-16T15:15:49.457Z,3.75
2023-09-16T15:18:16.750Z,4.07
2023-09-16T15:20:44.241Z,4.82
2023-09-16T15:23:14.755Z,4.30
2023-09-16T15:25:41.988Z,4.63
2023-09-16T15:28:08.927Z,5.55
2023-09-16T15:30:35.758Z,4.90
2023-09-16T15:33:03.839Z,5.63
2023-09-16T15:36:07.918Z,4.95
2023-09-16T15:38:34.750Z,4.40
2023-09-16T15:41:02.873Z,3.88
2023-09-16T15:43:32.093Z,3.88
2023-09-16T15:46:01.013Z,3.75
2023-09-16T15:48:29.015Z,3.45
2023-09-16T15:50:56.489Z,3.75
2023-09-16T15:53:25.967Z,3.78
2023-09-16T15:55:55.047Z,4.30
2023-09-16T15:58:22.946Z,3.97
2023-09-16T16:00:52.567Z,3.70
2023-09-16T16:03:21.571Z,3.78
2023-09-16T16:05:49.039Z,3.90
2023-09-16T16:08:17.371Z,3.85
2023-09-16T16:10:48.017Z,4.22
2023-09-16T16:13:15.528Z,4.55
2023-09-16T16:15:42.591Z,4.00
2023-09-16T16:18:10.712Z,3.65
2023-09-16T16:20:39.292Z,4.47
2023-09-16T16:23:06.181Z,4.15
2023-09-16T16:25:33.132Z,3.75
2023-09-16T16:28:02.441Z,4.55
2023-09-16T16:30:32.560Z,3.65
2023-09-16T16:33:01.682Z,4.05
2023-09-16T16:35:51.259Z,3.90
2023-09-16T16:38:16.515Z,4.40
2023-09-16T16:40:43.687Z,5.03
2023-09-16T16:43:16.247Z,4.60
2023-09-16T16:45:48.892Z,5.22
2023-09-16T16:48:15.972Z,5.25
2023-09-16T16:50:44.576Z,5.50
2023-09-16T16:53:23.004Z,4.60
2023-09-16T16:55:58.597Z,6.03
2023-09-16T16:58:45.629Z,6.57
2023-09-16T17:01:14.961Z,6.30
2023-09-16T17:03:45.559Z,5.43
2023-09-16T17:06:17.403Z,11.80
2023-09-16T17:16:56.282Z,19.02
2023-09-16T17:22:50.696Z,10.65
2023-09-16T17:26:47.729Z,11.30
2023-09-16T17:30:12.070Z,13.50
2023-09-16T17:40:19.335Z,11.15
2023-09-16T17:46:39.456Z,12.20
2023-09-16T17:53:35.270Z,8.07
2023-09-16T17:56:25.463Z,6.63
2023-09-16T17:58:52.805Z,10.40
2023-09-16T18:01:23.540Z,8.07
2023-09-16T18:03:51.959Z,8.13
2023-09-16T18:06:21.002Z,7.07
2023-09-16T18:08:50.608Z,6.25
2023-09-16T18:11:17.635Z,7.25
2023-09-16T18:13:47.090Z,10.48
2023-09-16T18:16:20.077Z,7.22
2023-09-16T18:18:53.247Z,6.35
2023-09-16T18:21:29.825Z,7.78
2023-09-16T18:23:56.882Z,5.50
2023-09-16T18:26:23.881Z,7.63
2023-09-16T18:28:51.772Z,11.95
2023-09-16T18:31:21.742Z,5.53
2023-09-16T18:33:50.194Z,5.43
2023-09-16T18:36:19.169Z,6.43
2023-09-16T18:38:47.683Z,7.28
2023-09-16T18:41:15.034Z,7.65
2023-09-16T18:43:43.545Z,7.00
2023-09-16T18:46:13.588Z,5.78
2023-09-16T18:48:40.551Z,6.00
2023-09-16T18:51:08.278Z,5.75
2023-09-16T18:53:35.392Z,5.80
2023-09-16T18:56:02.290Z,5.88
2023-09-16T18:58:30.523Z,6.10
2023-09-16T19:01:20.362Z,6.13
2023-09-16T19:03:54.870Z,6.07
2023-09-16T19:06:34.058Z,6.53
2023-09-16T19:09:02.427Z,6.60
2023-09-16T19:11:36.675Z,6.75
2023-09-16T19:14:07.869Z,8.55
2023-09-16T19:16:40.269Z,11.00
2023-09-16T19:19:07.575Z,13.40
2023-09-16T19:21:36.670Z,15.55
2023-09-16T19:24:08.772Z,14.65
2023-09-16T19:26:44.984Z,14.10
2023-09-16T19:29:19.823Z,13.48
2023-09-16T19:31:48.392Z,10.95
2023-09-16T19:34:37.017Z,9.00
2023-09-16T19:37:06.699Z,9.13
2023-09-16T19:39:33.749Z,11.57
2023-09-16T19:42:01.333Z,10.75
2023-09-16T19:44:28.387Z,10.32
2023-09-16T19:46:57.586Z,9.30
2023-09-16T19:49:25.008Z,6.38
2023-09-16T19:51:56.580Z,10.27
2023-09-16T19:57:11.184Z,7.57
2023-09-16T20:04:09.751Z,7.72
2023-09-16T20:07:23.263Z,7.88
2023-09-16T20:09:50.098Z,8.98
2023-09-16T20:12:25.060Z,8.48
2023-09-16T20:14:51.889Z,13.13
2023-09-16T20:17:18.811Z,12.05
2023-09-16T20:19:47.692Z,11.95
2023-09-16T20:22:16.624Z,10.35
2023-09-16T20:24:50.878Z,11.95
2023-09-16T20:27:19.266Z,9.63
2023-09-16T20:29:59.197Z,10.15
2023-09-16T20:32:26.072Z,9.65
2023-09-16T20:34:52.962Z,9.10
2023-09-16T20:37:20.207Z,9.85
2023-09-16T20:39:46.938Z,9.15
2023-09-16T20:42:13.718Z,10.93
2023-09-16T20:44:40.424Z,8.90
2023-09-16T20:47:10.235Z,9.10
2023-09-16T20:49:43.305Z,9.13
2023-09-16T20:52:10.206Z,9.25
2023-09-16T20:54:36.989Z,10.10
2023-09-16T20:57:04.175Z,9.63
2023-09-16T20:59:32.693Z,9.60
2023-09-16T21:02:01.005Z,10.50
2023-09-16T21:04:27.922Z,10.63
2023-09-16T21:06:54.682Z,8.85
2023-09-16T21:09:21.719Z,9.45
2023-09-16T21:11:48.438Z,9.25
2023-09-16T21:14:15.192Z,10.13
2023-09-16T21:16:42.783Z,9.63
2023-09-16T21:19:09.664Z,9.85
2023-09-16T21:21:36.592Z,10.15
2023-09-16T21:24:06.126Z,9.65
2023-09-16T21:26:34.139Z,9.95
2023-09-16T21:29:01.126Z,9.85
2023-09-16T21:31:29.059Z,10.85
2023-09-16T21:34:01.006Z,11.02
2023-09-16T21:36:27.913Z,10.73
2023-09-16T21:38:59.125Z,11.25
2023-09-16T21:41:26.035Z,10.95
2023-09-16T21:43:53.158Z,10.40
2023-09-16T21:46:20.419Z,10.00
2023-09-16T21:48:47.211Z,10.00
2023-09-16T21:51:14.036Z,10.88
2023-09-16T21:53:40.854Z,11.30
2023-09-16T21:56:07.825Z,10.15
2023-09-16T21:58:34.799Z,10.68
2023-09-16T22:01:01.677Z,10.10
2023-09-16T22:03:28.626Z,11.70
2023-09-16T22:05:55.621Z,11.07
2023-09-16T22:08:22.841Z,11.50
2023-09-16T22:10:49.897Z,10.00
2023-09-16T22:13:16.955Z,9.90
2023-09-16T22:15:44.465Z,9.90
2023-09-16T22:18:11.371Z,10.07
2023-09-16T22:20:39.979Z,10.55
2023-09-16T22:23:06.960Z,9.65
2023-09-16T22:25:33.978Z,10.50
2023-09-16T22:28:00.908Z,8.80
2023-09-16T22:30:27.984Z,11.52
2023-09-16T22:32:54.891Z,11.52
2023-09-16T22:35:22.108Z,11.23
2023-09-16T22:37:48.943Z,11.38
2023-09-16T22:40:15.850Z,9.65
2023-09-16T22:42:43.519Z,10.48
2023-09-16T22:45:11.711Z,10.73
2023-09-16T22:47:38.740Z,10.32
2023-09-16T22:50:07.718Z,9.88
2023-09-16T22:52:34.678Z,9.63
2023-09-16T22:55:01.699Z,10.57
2023-09-16T22:57:28.755Z,10.63
2023-09-16T22:59:56.801Z,10.45
2023-09-16T23:02:25.064Z,10.25
2023-09-16T23:04:52.732Z,10.05
2023-09-16T23:07:20.326Z,10.98
2023-09-16T23:09:47.677Z,11.68
2023-09-16T23:12:14.573Z,10.52
2023-09-16T23:14:41.703Z,9.80
2023-09-16T23:17:09.570Z,9.00
2023-09-16T23:19:36.969Z,9.80
2023-09-16T23:22:03.990Z,10.45
2023-09-16T23:24:30.885Z,10.20
2023-09-16T23:26:59.451Z,9.80
2023-09-16T23:29:26.355Z,9.98
2023-09-16T23:31:53.366Z,9.30
2023-09-16T23:34:20.430Z,11.35
2023-09-16T23:36:47.474Z,10.10
2023-09-16T23:39:14.754Z,9.77
2023-09-16T23:41:41.735Z,9.52
2023-09-16T23:44:08.998Z,9.93
2023-09-16T23:46:36.830Z,12.48
2023-09-16T23:49:04.749Z,12.07
2023-09-16T23:51:31.881Z,12.55
2023-09-16T23:53:58.885Z,11.38
2023-09-16T23:56:27.297Z,11.88
2023-09-16T23:58:54.230Z,10.48
